createdAt,value
2022-08-31T00:01:43.193Z,69.63
2022-08-31T00:04:09.595Z,69.74
2022-08-31T00:06:35.914Z,69.83
2022-08-31T00:09:02.275Z,69.87
2022-08-31T00:11:28.649Z,70.12
2022-08-31T00:13:55.030Z,70.42
2022-08-31T00:16:21.515Z,70.15
2022-08-31T00:18:47.833Z,70.27
2022-08-31T00:21:14.329Z,70.11
2022-08-31T00:23:40.701Z,69.84
2022-08-31T00:26:07.086Z,70.21
2022-08-31T00:28:33.526Z,70.32
2022-08-31T00:30:59.958Z,70.31
2022-08-31T00:33:26.362Z,70.36
2022-08-31T00:35:52.733Z,69.93
2022-08-31T00:38:19.101Z,69.80
2022-08-31T00:40:45.656Z,70.14
2022-08-31T00:43:12.085Z,70.86
2022-08-31T00:45:38.424Z,71.15
2022-08-31T00:48:04.886Z,71.00
2022-08-31T00:50:31.255Z,71.30
2022-08-31T00:52:57.617Z,71.50
2022-08-31T00:55:24.043Z,71.95
2022-08-31T00:57:50.428Z,72.21
2022-08-31T01:00:16.797Z,72.57
2022-08-31T01:02:43.188Z,72.99
2022-08-31T01:05:09.576Z,72.20
2022-08-31T01:07:35.938Z,71.94
2022-08-31T01:10:02.306Z,72.51
2022-08-31T01:12:28.705Z,72.74
2022-08-31T01:14:55.077Z,72.45
2022-08-31T01:17:21.571Z,72.92
2022-08-31T01:19:48.004Z,73.17
2022-08-31T01:22:14.432Z,73.59
2022-08-31T01:24:40.846Z,73.89
2022-08-31T01:27:07.215Z,73.86
2022-08-31T01:29:33.653Z,73.81
2022-08-31T01:32:00.093Z,74.04
2022-08-31T01:34:26.503Z,74.01
2022-08-31T01:36:52.934Z,73.96
2022-08-31T01:39:19.353Z,73.89
2022-08-31T01:41:45.751Z,73.71
2022-08-31T01:44:12.123Z,73.62
2022-08-31T01:46:38.579Z,74.09
2022-08-31T01:49:04.992Z,74.04
2022-08-31T01:51:31.370Z,73.93
2022-08-31T01:53:57.735Z,73.62
2022-08-31T01:56:24.135Z,73.52
2022-08-31T01:58:50.636Z,74.12
2022-08-31T02:01:33.209Z,74.28
2022-08-31T02:03:43.404Z,74.42
2022-08-31T02:06:09.770Z,74.72
2022-08-31T02:08:36.133Z,75.74
2022-08-31T02:11:02.525Z,75.22
2022-08-31T02:13:28.891Z,74.21
2022-08-31T02:15:55.354Z,74.08
2022-08-31T02:18:21.644Z,74.13
2022-08-31T02:20:48.005Z,74.54
2022-08-31T02:23:14.410Z,74.12
2022-08-31T02:25:40.747Z,74.21
2022-08-31T02:28:07.217Z,74.69
2022-08-31T02:30:33.617Z,74.32
2022-08-31T02:32:59.991Z,75.20
2022-08-31T02:35:26.355Z,75.30
2022-08-31T02:37:52.734Z,75.49
2022-08-31T02:40:19.211Z,75.32
2022-08-31T02:42:53.832Z,75.28
2022-08-31T02:45:11.926Z,75.52
2022-08-31T02:47:38.461Z,75.25
2022-08-31T02:50:04.827Z,74.70
2022-08-31T02:52:31.211Z,74.56
2022-08-31T02:54:57.620Z,75.54
2022-08-31T02:57:23.966Z,75.44
2022-08-31T02:59:50.351Z,75.89
2022-08-31T03:02:16.868Z,76.39
2022-08-31T03:04:43.126Z,76.86
2022-08-31T03:07:09.522Z,76.91
2022-08-31T03:09:35.916Z,77.16
2022-08-31T03:12:02.289Z,77.12
2022-08-31T03:14:28.675Z,77.50
2022-08-31T03:16:55.082Z,78.48
2022-08-31T03:19:21.484Z,78.94
2022-08-31T03:21:47.916Z,78.97
2022-08-31T03:24:14.327Z,78.74
2022-08-31T03:26:40.715Z,79.06
2022-08-31T03:29:07.095Z,79.67
2022-08-31T03:31:33.495Z,79.97
2022-08-31T03:33:59.826Z,79.50
2022-08-31T03:36:26.201Z,79.88
2022-08-31T03:38:52.605Z,79.78
2022-08-31T03:41:18.994Z,79.92
2022-08-31T03:43:45.352Z,80.15
2022-08-31T03:46:12.321Z,80.41
2022-08-31T03:48:38.217Z,80.70
2022-08-31T03:51:04.580Z,80.07
2022-08-31T03:53:30.947Z,80.11
2022-08-31T03:55:57.349Z,80.29
2022-08-31T03:58:23.806Z,80.41
2022-08-31T04:00:50.167Z,80.13
2022-08-31T04:03:16.531Z,79.14
2022-08-31T04:05:42.939Z,78.36
2022-08-31T04:08:09.322Z,78.71
2022-08-31T04:10:35.685Z,78.53
2022-08-31T04:13:02.073Z,79.37
2022-08-31T04:15:29.410Z,79.99
2022-08-31T04:17:57.214Z,79.75
2022-08-31T04:20:24.467Z,79.96
2022-08-31T04:22:47.602Z,80.36
2022-08-31T04:25:14.002Z,79.96
2022-08-31T04:27:40.391Z,79.55
2022-08-31T04:30:06.813Z,78.72
2022-08-31T04:32:33.179Z,77.45
2022-08-31T04:34:59.581Z,76.74
2022-08-31T04:37:25.947Z,77.14
2022-08-31T04:39:52.438Z,77.81
2022-08-31T04:42:18.722Z,78.08
2022-08-31T04:44:45.098Z,78.21
2022-08-31T04:47:11.458Z,78.38
2022-08-31T04:49:37.879Z,78.64
2022-08-31T04:52:04.299Z,78.86
2022-08-31T04:54:30.727Z,78.66
2022-08-31T04:56:57.159Z,78.18
2022-08-31T04:59:23.549Z,78.45
2022-08-31T05:01:50.069Z,78.56
2022-08-31T05:04:16.305Z,78.22
2022-08-31T05:06:42.717Z,77.65
2022-08-31T05:09:09.076Z,76.80
2022-08-31T05:11:35.456Z,75.53
2022-08-31T05:14:01.846Z,74.78
2022-08-31T05:16:28.274Z,74.14
2022-08-31T05:18:54.589Z,73.01
2022-08-31T05:21:20.951Z,71.64
2022-08-31T05:23:47.373Z,69.99
2022-08-31T05:26:13.731Z,69.26
2022-08-31T05:28:40.103Z,67.79
2022-08-31T05:31:06.639Z,67.07
2022-08-31T05:33:32.996Z,65.60
2022-08-31T05:35:59.353Z,64.81
2022-08-31T05:38:25.730Z,63.88
2022-08-31T05:40:52.160Z,62.63
2022-08-31T05:43:18.725Z,63.21
2022-08-31T05:45:44.925Z,63.37
2022-08-31T05:48:11.344Z,63.80
2022-08-31T05:50:37.758Z,62.81
2022-08-31T05:53:04.201Z,61.72
2022-08-31T05:55:30.559Z,59.67
2022-08-31T05:57:56.932Z,58.96
2022-08-31T06:00:23.402Z,58.39
2022-08-31T06:02:53.705Z,58.25
2022-08-31T06:05:16.243Z,56.93
2022-08-31T06:07:42.568Z,56.58
2022-08-31T06:10:08.954Z,57.39
2022-08-31T06:12:35.354Z,58.14
2022-08-31T06:15:01.718Z,55.64
2022-08-31T06:17:28.091Z,55.29
2022-08-31T06:19:54.458Z,54.28
2022-08-31T06:22:20.993Z,54.60
2022-08-31T06:24:47.372Z,54.13
2022-08-31T06:27:13.748Z,54.90
2022-08-31T06:29:40.289Z,54.58
2022-08-31T06:32:06.662Z,53.93
2022-08-31T06:34:33.047Z,53.33
2022-08-31T06:36:59.464Z,53.11
2022-08-31T06:39:25.877Z,53.29
2022-08-31T06:41:52.243Z,52.59
2022-08-31T06:44:18.697Z,52.65
2022-08-31T06:46:47.123Z,51.30
2022-08-31T06:49:11.657Z,51.83
2022-08-31T06:51:38.246Z,51.10
2022-08-31T06:54:21.748Z,50.34
2022-08-31T06:56:31.155Z,50.94
2022-08-31T06:58:57.511Z,50.08
2022-08-31T07:01:35.319Z,51.00
2022-08-31T07:03:50.297Z,51.37
2022-08-31T07:06:16.697Z,52.37
2022-08-31T07:08:43.127Z,51.65
2022-08-31T07:11:09.506Z,51.44
2022-08-31T07:13:35.887Z,49.91
2022-08-31T07:16:02.288Z,48.87
2022-08-31T07:18:28.652Z,48.32
2022-08-31T07:20:55.078Z,49.69
2022-08-31T07:23:21.435Z,48.90
2022-08-31T07:25:47.801Z,47.39
2022-08-31T07:28:14.196Z,46.79
2022-08-31T07:30:40.648Z,46.69
2022-08-31T07:33:06.970Z,45.83
2022-08-31T07:35:33.343Z,44.60
2022-08-31T07:37:59.713Z,44.67
2022-08-31T07:40:26.114Z,45.73
2022-08-31T07:42:52.457Z,45.00
2022-08-31T07:45:18.826Z,43.80
2022-08-31T07:47:45.340Z,43.85
2022-08-31T07:50:11.563Z,45.30
2022-08-31T07:52:37.969Z,45.06
2022-08-31T07:55:04.324Z,45.10
2022-08-31T07:57:30.759Z,44.43
2022-08-31T07:59:57.120Z,44.05
2022-08-31T08:02:23.622Z,43.73
2022-08-31T08:04:49.966Z,43.53
2022-08-31T08:07:16.342Z,44.05
2022-08-31T08:09:42.818Z,43.63
2022-08-31T08:12:09.259Z,43.36
2022-08-31T08:14:35.626Z,43.33
2022-08-31T08:17:01.996Z,42.58
2022-08-31T08:19:28.384Z,42.38
2022-08-31T08:21:54.886Z,41.72
2022-08-31T08:24:21.257Z,42.86
2022-08-31T08:26:52.095Z,42.96
2022-08-31T08:29:14.057Z,41.79
2022-08-31T08:31:40.622Z,40.40
2022-08-31T08:34:06.898Z,41.48
2022-08-31T08:36:33.267Z,40.55
2022-08-31T08:39:00.681Z,39.90
2022-08-31T08:41:27.053Z,39.55
2022-08-31T08:43:53.444Z,40.94
2022-08-31T08:46:33.962Z,40.55
2022-08-31T08:48:46.587Z,40.11
2022-08-31T08:51:12.964Z,39.40
2022-08-31T08:53:39.343Z,38.21
2022-08-31T08:56:29.621Z,38.15
2022-08-31T08:58:32.106Z,38.31
2022-08-31T09:00:58.509Z,37.22
2022-08-31T09:03:24.889Z,38.06
2022-08-31T09:05:51.252Z,37.58
2022-08-31T09:08:17.632Z,37.89
2022-08-31T09:10:44.030Z,36.86
2022-08-31T09:13:10.373Z,36.83
2022-08-31T09:15:37.044Z,36.92
2022-08-31T09:18:03.202Z,36.55
2022-08-31T09:20:29.688Z,36.32
2022-08-31T09:22:56.079Z,35.82
2022-08-31T09:25:22.434Z,36.47
2022-08-31T09:27:48.823Z,35.37
2022-08-31T09:30:15.178Z,35.76
2022-08-31T09:32:41.546Z,36.17
2022-08-31T09:35:07.983Z,36.66
2022-08-31T09:37:34.341Z,36.69
2022-08-31T09:40:04.304Z,37.23
2022-08-31T09:42:27.100Z,36.31
2022-08-31T09:44:53.509Z,36.66
2022-08-31T09:47:19.910Z,36.27
2022-08-31T09:49:46.325Z,35.66
2022-08-31T09:52:12.703Z,35.29
2022-08-31T09:54:42.101Z,35.38
2022-08-31T09:57:05.584Z,34.15
2022-08-31T09:59:31.957Z,33.64
2022-08-31T10:01:58.315Z,33.53
2022-08-31T10:04:24.729Z,33.31
2022-08-31T10:06:51.119Z,33.78
2022-08-31T10:09:17.506Z,33.83
2022-08-31T10:11:43.903Z,34.31
2022-08-31T10:14:10.292Z,33.70
2022-08-31T10:16:36.667Z,33.22
2022-08-31T10:19:03.160Z,33.06
2022-08-31T10:21:29.541Z,32.66
2022-08-31T10:23:56.025Z,32.11
2022-08-31T10:26:22.425Z,32.20
2022-08-31T10:28:48.794Z,33.82
2022-08-31T10:31:15.221Z,35.99
2022-08-31T10:33:41.604Z,36.96
2022-08-31T10:36:08.012Z,38.36
2022-08-31T10:38:34.427Z,39.21
2022-08-31T10:41:00.784Z,40.26
2022-08-31T10:43:27.282Z,41.75
2022-08-31T10:45:53.693Z,43.91
2022-08-31T10:48:20.046Z,45.11
2022-08-31T10:50:46.411Z,46.19
2022-08-31T10:53:12.859Z,46.67
2022-08-31T10:55:39.195Z,47.36
2022-08-31T10:58:05.573Z,47.64
2022-08-31T11:00:31.957Z,47.79
2022-08-31T11:02:58.378Z,48.43
2022-08-31T11:05:24.758Z,49.56
2022-08-31T11:07:51.149Z,50.59
2022-08-31T11:10:17.638Z,51.28
2022-08-31T11:12:44.021Z,52.27
2022-08-31T11:15:10.379Z,53.74
2022-08-31T11:17:36.806Z,54.10
2022-08-31T11:20:03.264Z,54.65
2022-08-31T11:22:29.676Z,54.90
2022-08-31T11:24:56.042Z,55.77
2022-08-31T11:27:22.464Z,56.40
2022-08-31T11:29:48.834Z,57.45
2022-08-31T11:32:15.207Z,58.36
2022-08-31T11:34:41.593Z,59.69
2022-08-31T11:37:07.959Z,60.35
2022-08-31T11:39:34.344Z,60.08
2022-08-31T11:42:00.761Z,60.00
2022-08-31T11:44:27.120Z,59.50
2022-08-31T11:46:53.513Z,59.37
2022-08-31T11:49:19.875Z,58.55
2022-08-31T11:51:46.386Z,58.08
2022-08-31T11:54:12.809Z,57.16
2022-08-31T11:56:39.177Z,56.42
2022-08-31T11:59:05.579Z,54.90
2022-08-31T12:01:31.970Z,54.46
2022-08-31T12:03:58.337Z,53.96
2022-08-31T12:06:24.701Z,52.74
2022-08-31T12:08:51.093Z,52.69
2022-08-31T12:11:17.463Z,52.36
2022-08-31T12:13:43.841Z,52.33
2022-08-31T12:16:10.340Z,52.01
2022-08-31T12:18:36.614Z,51.34
2022-08-31T12:21:03.067Z,51.75
2022-08-31T12:23:30.632Z,52.23
2022-08-31T12:25:55.860Z,51.65
2022-08-31T12:28:22.261Z,50.97
2022-08-31T12:30:48.742Z,50.41
2022-08-31T12:33:15.184Z,50.82
2022-08-31T12:35:41.503Z,50.92
2022-08-31T12:38:07.876Z,51.00
2022-08-31T12:40:34.465Z,51.43
2022-08-31T12:43:00.740Z,52.03
2022-08-31T12:45:27.131Z,53.67
2022-08-31T12:47:53.628Z,57.92
2022-08-31T12:50:20.053Z,60.51
2022-08-31T12:52:46.436Z,61.12
2022-08-31T12:55:12.800Z,60.26
2022-08-31T12:57:39.260Z,59.34
2022-08-31T13:00:05.764Z,58.24
2022-08-31T13:02:34.822Z,56.50
2022-08-31T13:04:59.640Z,55.35
2022-08-31T13:07:26.066Z,55.63
2022-08-31T13:09:52.552Z,55.44
2022-08-31T13:12:18.933Z,53.96
2022-08-31T13:14:45.339Z,53.37
2022-08-31T13:17:11.746Z,52.39
2022-08-31T13:19:38.092Z,52.88
2022-08-31T13:22:04.508Z,52.57
2022-08-31T13:24:30.877Z,53.06
2022-08-31T13:26:57.239Z,52.37
2022-08-31T13:29:23.641Z,53.40
2022-08-31T13:31:50.033Z,53.03
2022-08-31T13:34:16.424Z,53.06
2022-08-31T13:36:43.012Z,53.18
2022-08-31T13:39:09.404Z,53.50
2022-08-31T13:41:35.767Z,53.11
2022-08-31T13:44:02.833Z,53.06
2022-08-31T13:46:41.857Z,52.74
2022-08-31T13:48:54.932Z,52.99
2022-08-31T13:51:21.328Z,52.11
2022-08-31T13:53:47.718Z,52.07
2022-08-31T13:56:14.080Z,52.29
2022-08-31T13:58:40.495Z,52.36
2022-08-31T14:01:06.935Z,52.95
2022-08-31T14:03:33.279Z,53.17
2022-08-31T14:05:59.647Z,54.39
2022-08-31T14:08:26.056Z,55.28
2022-08-31T14:10:52.422Z,55.17
2022-08-31T14:13:18.997Z,54.88
2022-08-31T14:15:45.162Z,54.41
2022-08-31T14:18:27.283Z,54.93
2022-08-31T14:20:38.011Z,55.06
2022-08-31T14:23:04.379Z,55.79
2022-08-31T14:25:30.780Z,56.19
2022-08-31T14:27:57.177Z,56.28
2022-08-31T14:30:23.560Z,56.21
2022-08-31T14:32:50.012Z,55.81
2022-08-31T14:35:16.369Z,55.58
2022-08-31T14:37:42.762Z,55.44
2022-08-31T14:40:09.300Z,55.46
2022-08-31T14:42:35.566Z,55.62
2022-08-31T14:45:02.005Z,55.71
2022-08-31T14:47:28.436Z,54.92
2022-08-31T14:49:54.797Z,52.73
2022-08-31T14:52:21.181Z,53.53
2022-08-31T14:54:47.561Z,52.97
2022-08-31T14:57:13.956Z,53.00
2022-08-31T14:59:40.318Z,52.08
2022-08-31T15:02:06.756Z,51.85
2022-08-31T15:04:33.170Z,51.30
2022-08-31T15:07:01.677Z,51.70
2022-08-31T15:09:25.948Z,51.35
2022-08-31T15:11:52.313Z,51.67
2022-08-31T15:14:18.696Z,51.15
2022-08-31T15:16:45.185Z,50.90
2022-08-31T15:19:11.448Z,51.03
2022-08-31T15:21:45.222Z,52.34
2022-08-31T15:24:04.226Z,52.60
2022-08-31T15:26:30.608Z,53.01
2022-08-31T15:28:57.000Z,54.76
2022-08-31T15:31:23.443Z,55.77
2022-08-31T15:33:49.846Z,56.06
2022-08-31T15:36:16.285Z,56.28
2022-08-31T15:38:42.712Z,56.66
2022-08-31T15:41:09.074Z,56.67
2022-08-31T15:43:35.442Z,56.04
2022-08-31T15:46:01.885Z,55.94
2022-08-31T15:48:28.199Z,56.08
2022-08-31T15:50:54.599Z,56.32
2022-08-31T15:53:20.997Z,56.28
2022-08-31T15:55:47.616Z,56.63
2022-08-31T15:58:14.002Z,56.46
2022-08-31T16:00:40.407Z,56.92
2022-08-31T16:03:06.826Z,56.46
2022-08-31T16:05:33.196Z,56.43
2022-08-31T16:07:59.562Z,56.58
2022-08-31T16:10:25.936Z,56.17
2022-08-31T16:12:52.305Z,55.95
2022-08-31T16:15:20.405Z,56.24
2022-08-31T16:17:45.151Z,56.10
2022-08-31T16:20:11.519Z,55.70
2022-08-31T16:22:37.909Z,56.24
2022-08-31T16:25:04.326Z,56.17
2022-08-31T16:27:30.722Z,56.50
2022-08-31T16:29:57.128Z,56.82
2022-08-31T16:32:23.485Z,56.78
2022-08-31T16:34:49.863Z,56.66
2022-08-31T16:37:16.229Z,56.79
2022-08-31T16:39:42.605Z,56.43
2022-08-31T16:42:08.990Z,56.29
2022-08-31T16:44:36.579Z,56.01
2022-08-31T16:47:01.729Z,55.93
2022-08-31T16:49:28.139Z,56.07
2022-08-31T16:51:54.575Z,56.19
2022-08-31T16:54:20.943Z,56.05
2022-08-31T16:56:52.002Z,56.09
2022-08-31T16:59:13.749Z,56.28
2022-08-31T17:01:40.119Z,56.90
2022-08-31T17:04:06.480Z,56.86
2022-08-31T17:06:32.906Z,57.26
2022-08-31T17:08:59.275Z,57.40
2022-08-31T17:11:25.640Z,57.35
2022-08-31T17:13:52.124Z,57.56
2022-08-31T17:16:18.596Z,57.70
2022-08-31T17:18:44.932Z,57.75
2022-08-31T17:21:11.325Z,57.75
2022-08-31T17:23:37.709Z,57.76
2022-08-31T17:26:04.105Z,57.91
2022-08-31T17:28:30.556Z,59.82
2022-08-31T17:30:56.993Z,61.10
2022-08-31T17:33:23.370Z,62.31
2022-08-31T17:35:49.772Z,63.31
2022-08-31T17:38:16.204Z,64.09
2022-08-31T17:40:42.613Z,64.73
2022-08-31T17:43:08.980Z,65.17
2022-08-31T17:45:35.365Z,65.11
2022-08-31T17:48:01.752Z,65.37
2022-08-31T17:50:28.143Z,65.74
2022-08-31T17:52:54.534Z,65.98
2022-08-31T17:55:20.921Z,65.87
2022-08-31T17:57:47.317Z,65.84
2022-08-31T18:00:13.777Z,65.60
2022-08-31T18:02:40.148Z,65.69
2022-08-31T18:05:09.510Z,66.25
2022-08-31T18:07:32.980Z,66.38
2022-08-31T18:09:59.354Z,66.78
2022-08-31T18:12:25.941Z,67.00
2022-08-31T18:14:52.132Z,67.07
2022-08-31T18:17:18.530Z,67.36
2022-08-31T18:19:44.981Z,67.62
2022-08-31T18:22:11.370Z,67.78
2022-08-31T18:24:37.806Z,68.40
2022-08-31T18:27:04.268Z,68.99
2022-08-31T18:29:30.682Z,69.12
2022-08-31T18:31:57.210Z,69.17
2022-08-31T18:34:23.449Z,69.22
2022-08-31T18:36:49.829Z,69.23
2022-08-31T18:39:25.943Z,69.51
2022-08-31T18:41:42.614Z,69.70
2022-08-31T18:44:09.011Z,69.83
2022-08-31T18:46:35.448Z,69.92
2022-08-31T18:49:12.179Z,69.97
2022-08-31T18:51:28.213Z,69.89
2022-08-31T18:53:54.626Z,70.06
2022-08-31T18:56:21.055Z,70.01
2022-08-31T18:58:47.477Z,70.13
2022-08-31T19:01:14.134Z,70.18
2022-08-31T19:03:40.369Z,70.03
2022-08-31T19:06:06.764Z,70.09
2022-08-31T19:08:33.143Z,70.01
2022-08-31T19:10:59.599Z,70.08
2022-08-31T19:13:25.978Z,70.49
2022-08-31T19:15:52.360Z,70.39
2022-08-31T19:18:18.741Z,70.63
2022-08-31T19:20:45.145Z,70.50
2022-08-31T19:23:13.696Z,70.29
2022-08-31T19:25:37.991Z,70.66
2022-08-31T19:28:04.360Z,70.75
2022-08-31T19:30:30.786Z,71.42
2022-08-31T19:32:57.212Z,72.00
2022-08-31T19:35:25.856Z,72.71
2022-08-31T19:37:50.609Z,72.80
2022-08-31T19:40:16.601Z,72.97
2022-08-31T19:42:59.783Z,73.07
2022-08-31T19:45:40.353Z,73.10
2022-08-31T19:47:36.197Z,72.95
2022-08-31T19:50:02.551Z,72.98
2022-08-31T19:52:29.907Z,73.43
2022-08-31T19:55:09.216Z,73.65
2022-08-31T19:57:30.758Z,73.96
2022-08-31T19:59:57.136Z,73.91
2022-08-31T20:02:23.582Z,73.90
2022-08-31T20:04:49.876Z,73.76
2022-08-31T20:07:16.279Z,73.91
2022-08-31T20:09:42.639Z,74.13
2022-08-31T20:12:09.235Z,74.41
2022-08-31T20:14:35.508Z,74.45
2022-08-31T20:17:01.877Z,74.41
2022-08-31T20:19:28.305Z,74.25
2022-08-31T20:21:54.658Z,74.01
2022-08-31T20:24:21.033Z,74.30
2022-08-31T20:26:51.818Z,73.67
2022-08-31T20:29:13.811Z,73.58
2022-08-31T20:31:40.514Z,73.17
2022-08-31T20:34:06.642Z,73.51
2022-08-31T20:36:33.034Z,72.96
2022-08-31T20:38:59.410Z,73.21
2022-08-31T20:41:25.832Z,73.20
2022-08-31T20:43:52.216Z,73.72
2022-08-31T20:46:18.613Z,74.01
2022-08-31T20:48:44.986Z,73.96
2022-08-31T20:51:11.355Z,73.63
2022-08-31T20:53:42.573Z,73.62
2022-08-31T20:56:05.255Z,73.46
2022-08-31T20:58:31.688Z,73.17
2022-08-31T21:00:58.113Z,72.87
2022-08-31T21:03:24.530Z,72.65
2022-08-31T21:05:50.861Z,72.67
2022-08-31T21:08:17.255Z,72.83
2022-08-31T21:10:43.622Z,72.53
2022-08-31T21:13:10.002Z,73.18
2022-08-31T21:15:36.547Z,73.30
2022-08-31T21:18:02.948Z,73.17
2022-08-31T21:20:29.310Z,72.95
2022-08-31T21:22:55.710Z,72.91
2022-08-31T21:25:22.145Z,72.77
2022-08-31T21:27:48.521Z,72.89
2022-08-31T21:30:14.941Z,72.91
2022-08-31T21:32:41.324Z,73.08
2022-08-31T21:35:07.694Z,73.13
2022-08-31T21:37:34.104Z,73.41
2022-08-31T21:40:00.545Z,73.62
2022-08-31T21:42:26.858Z,73.31
2022-08-31T21:44:53.261Z,73.29
2022-08-31T21:47:19.637Z,73.08
2022-08-31T21:49:46.004Z,73.17
2022-08-31T21:52:12.395Z,73.48
2022-08-31T21:54:38.807Z,73.48
2022-08-31T21:57:05.186Z,73.26
2022-08-31T21:59:31.568Z,73.20
2022-08-31T22:01:57.970Z,73.26
2022-08-31T22:04:24.336Z,73.38
2022-08-31T22:06:50.699Z,73.37
2022-08-31T22:09:17.082Z,73.57
2022-08-31T22:11:43.556Z,73.05
2022-08-31T22:14:09.922Z,73.05
2022-08-31T22:16:36.324Z,73.26
2022-08-31T22:19:02.955Z,73.57
2022-08-31T22:21:29.074Z,74.25
2022-08-31T22:23:55.517Z,74.33
2022-08-31T22:26:21.896Z,74.26
2022-08-31T22:28:48.263Z,74.65
2022-08-31T22:31:14.739Z,74.87
2022-08-31T22:33:41.053Z,74.85
2022-08-31T22:36:07.472Z,75.07
2022-08-31T22:38:33.900Z,74.77
2022-08-31T22:41:00.263Z,75.12
2022-08-31T22:43:26.670Z,75.29
2022-08-31T22:45:53.051Z,76.09
2022-08-31T22:48:19.630Z,75.72
2022-08-31T22:50:45.920Z,75.76
2022-08-31T22:53:12.317Z,76.41
2022-08-31T22:55:38.702Z,76.72
2022-08-31T22:58:05.074Z,76.68
2022-08-31T23:00:31.462Z,76.97
2022-08-31T23:02:57.930Z,76.68
2022-08-31T23:05:24.330Z,76.62
2022-08-31T23:07:50.798Z,76.33
2022-08-31T23:10:17.228Z,76.42
2022-08-31T23:12:43.600Z,76.75
2022-08-31T23:15:09.993Z,76.90
2022-08-31T23:17:36.349Z,76.75
2022-08-31T23:20:02.737Z,76.79
2022-08-31T23:22:29.132Z,77.08
2022-08-31T23:24:55.489Z,77.66
2022-08-31T23:27:21.864Z,77.85
2022-08-31T23:29:48.255Z,77.75
2022-08-31T23:32:14.718Z,77.44
2022-08-31T23:34:41.075Z,76.69
2022-08-31T23:37:07.508Z,77.52
2022-08-31T23:39:33.879Z,78.14
2022-08-31T23:42:00.247Z,78.19
2022-08-31T23:44:26.678Z,77.93
2022-08-31T23:46:53.047Z,78.08
2022-08-31T23:49:19.440Z,78.49
2022-08-31T23:51:45.810Z,78.07
2022-08-31T23:54:12.199Z,77.58
2022-08-31T23:56:38.586Z,77.74
2022-08-31T23:59:05.069Z,78.14
